Wallops Island, Virginia
Current Conditions -  °F | °C
As of 7:54 PM on Saturday 25 Oct 2014 (Local Time) from KWAL Reporting Station
Clear Clear  
Wind Chill: 61°   Ceiling: Unl
Heat Index: 61°   Visibility: 10mi
Dew Point: 44°   Wind: 9mph
Humidity: 54%   Direction: 240°WSW
Pressure: 29.79"   Gusts: NA
Location:  37.94°N, 75.46°W
Report Text: KWAL 252354Z 24008KT 10SM CLR 16/07 A2979 RMK AO2 SLP084 T01610067 10211 20144 56012
Loading
Personal Weather Stations






























Interactive Weather Map
Tropical Storm Tracking
New forecast layout! Learn more

10-Day Weather Forecast

Advertisements
Track Severe Weather on mobile